Portada
METAR-TAF:

METAR-TAF

Aeroports :

Vientiane, Laos

latitud: 17-57N, longitud: 102-34E, altitud: 171 m

Observació

L'informe es va fer fa 40 minuts, a les 23:30 UTC
Vent 2 kt del Nord
Temperatura 23°C
Humitat 100%
Pressió 1007 hPa
Visibilitat: 4000 m
Cel ennuvolat a una alçada de 20000 ft
boirina

METAR: VLVT 292330Z 36002KT 4000 BR BKN200 23/23 Q1007 NOSIG

Hora: 07:10 (00:10 UTC)

Pronòstic

L'informe es va fer fa 1 hora i 10 minuts, a les 23:00 UTC
Pronòstic vàlid del 30 a les 00 UTC al 30 a les 24 UTC
Vent 4 kt del Sud/Sud-Est
Visibilitat: 7000 m
Escasses núvols a una alçada de 2000 ft
Núvols disperses a una alçada de 20000 ft

TAF: VLVT 292300Z 3000/3024 16004KT 7000 FEW020 SCT200

Observacions i pronòstics meteorològics de més de 4000 aeroports (METAR i TAF).

Les estacions disponibles són els punts grocs i vermells al mapa.

Posi el ratolí al punt desitjat per veure el nom de l'estació.

Feu clic per veure les observacions i els pronòstics meteorològics.

Per canviar el mapa: feu clic els botons verds amb una creu de color negre per apropar; al botó verd amb un guió per allunyar la imatge; o en les fletxes verdes per a mapes adjacents.


METAR-TAF: